Terminal Aerodrome Forecast
Issued by NWS

Home | Current Version | Previous Version | Graphics & Text | Print | Product List | Glossary On
Versions: 1 2 3 4 5 6 7 8 9 10 11 12 13 14
000
FTUS43 KBIS 262328
TAFDIK
TAF
KDIK 262328Z 2700/2724 18012KT P6SM VCTS SCT090CB BKN150
     FM270300 17008KT P6SM SCT250
     FM270800 19006KT P6SM BKN200
     FM271400 25005KT P6SM FEW250=

USA.gov is the U.S. government's official web portal to all federal, state and local government web resources and services.